Time;durP1;ratioP1;P1;durP2;ratioP2;P2;SDS_P1;SDS_P2;PMS_P1;PMS_P2;Temp;Humidity;BMP_temperature;BMP_pressure;BME280_temperature;BME280_humidity;BME280_pressure;Samples;Min_cycle;Max_cycle;Signal;HPM_P1;HPM_P2
2023/04/09 00:00:46;;;;;;;;;;;10.40;87.30;;;9.70;68.77;101506.78;5087178;28;19934;-78
2023/04/09 00:03:13;;;;;;;;;;;10.40;87.30;;;9.68;68.82;101511.47;5089999;28;19935;-78
2023/04/09 00:05:41;;;;;;;;;;;10.40;87.40;;;9.67;68.71;101511.66;5092130;28;20023;-79
2023/04/09 00:08:08;;;;;;;;;;;10.30;87.20;;;9.64;68.77;101515.50;5089472;28;20027;-78
2023/04/09 00:10:35;;;;;;;;;;;10.30;87.30;;;9.63;68.74;101513.03;5090849;28;19932;-77
2023/04/09 00:13:02;;;;;;;;;;;10.40;87.20;;;9.62;68.63;101516.69;5093332;28;20023;-78
2023/04/09 00:15:29;;;;;;;;;;;10.30;87.20;;;9.60;68.69;101514.19;5090038;28;20011;-77
2023/04/09 00:17:56;;;;;;;;;;;10.30;87.20;;;9.57;68.50;101509.25;5089112;28;19934;-78
2023/04/09 00:20:23;;;;;;;;;;;10.30;87.00;;;9.55;68.49;101511.25;5089446;28;20064;-77
2023/04/09 00:22:52;;;;;;;;;;;10.30;87.10;;;9.52;68.37;101508.97;5089750;28;19935;-77
2023/04/09 00:25:19;;;;;;;;;;;10.40;87.00;;;9.49;68.45;101506.63;5092231;28;19977;-80
2023/04/09 00:27:46;;;;;;;;;;;10.20;87.10;;;9.47;68.61;101504.16;5088992;28;19926;-80
2023/04/09 00:30:13;;;;;;;;;;;10.20;87.00;;;9.46;68.43;101504.31;5090906;28;20289;-76
2023/04/09 00:32:40;;;;;;;;;;;10.20;86.80;;;9.44;68.29;101498.34;5095940;28;20019;-80
2023/04/09 00:35:08;;;;;;;;;;;10.20;86.90;;;9.45;68.34;101500.00;5089554;28;19935;-75
2023/04/09 00:37:35;;;;;;;;;;;10.10;86.90;;;9.42;68.29;101498.53;5090230;28;19928;-77
2023/04/09 00:40:05;;;;;;;;;;;10.10;86.90;;;9.40;68.05;101500.53;5071466;28;19978;-77
2023/04/09 00:42:33;;;;;;;;;;;10.10;86.70;;;9.38;67.94;101499.06;5092663;28;20410;-77
2023/04/09 00:45:00;;;;;;;;;;;10.10;86.60;;;9.36;67.86;101498.41;5089936;28;19973;-77
2023/04/09 00:47:28;;;;;;;;;;;10.00;86.40;;;9.33;67.96;101491.63;5070855;28;19973;-78
2023/04/09 00:49:55;;;;;;;;;;;10.00;86.40;;;9.32;67.87;101505.94;5088012;28;20370;-77
2023/04/09 00:52:23;;;;;;;;;;;10.00;86.30;;;9.31;67.64;101498.13;5100593;28;19943;-78
2023/04/09 00:54:50;;;;;;;;;;;10.00;86.30;;;9.26;67.80;101502.13;5030263;28;1799424;-77
2023/04/09 00:57:19;;;;;;;;;;;10.00;86.40;;;9.24;67.54;101498.00;5093499;28;20023;-78
2023/04/09 00:59:46;;;;;;;;;;;9.90;86.10;;;9.22;67.50;101494.69;5071741;28;19924;-79
2023/04/09 01:02:13;;;;;;;;;;;9.90;86.10;;;9.17;67.61;101495.19;5081967;28;20046;-78
2023/04/09 01:04:42;;;;;;;;;;;9.90;86.10;;;9.16;67.12;101498.06;5071873;28;20409;-77
2023/04/09 01:07:12;;;;;;;;;;;9.90;86.10;;;9.11;67.42;101500.41;5071440;28;19935;-77
2023/04/09 01:09:43;;;;;;;;;;;9.80;85.90;;;9.07;67.02;101502.59;5089500;28;19974;-77
2023/04/09 01:12:18;;;;;;;;;;;9.80;85.90;;;9.05;67.26;101499.28;5075368;28;19928;-78
2023/04/09 01:14:54;;;;;;;;;;;9.70;86.00;;;9.00;67.23;101493.66;5088275;28;19959;-78
2023/04/09 01:17:24;;;;;;;;;;;9.70;86.00;;;8.98;67.34;101493.03;5071602;28;19924;-78
2023/04/09 01:19:58;;;;;;;;;;;9.70;86.00;;;8.96;67.08;101489.69;5077199;28;20030;-77
2023/04/09 01:22:32;;;;;;;;;;;9.70;86.20;;;8.93;67.28;101490.88;5089711;28;20730;-77
2023/04/09 01:25:09;;;;;;;;;;;9.60;86.10;;;8.90;67.29;101485.91;5070676;28;19932;-78
2023/04/09 01:27:52;;;;;;;;;;;9.60;85.90;;;8.89;67.24;101491.41;5068282;28;20006;-76
2023/04/09 01:30:21;;;;;;;;;;;9.60;86.10;;;8.85;67.45;101495.41;5104624;28;20485;-76
2023/04/09 01:32:50;;;;;;;;;;;9.60;86.30;;;8.82;67.46;101482.47;5075484;28;20144;-80
2023/04/09 01:35:18;;;;;;;;;;;9.50;86.10;;;8.81;67.24;101494.09;5088742;28;19956;-76
2023/04/09 01:37:46;;;;;;;;;;;9.50;86.10;;;8.77;67.44;101489.13;5090124;28;19931;-76
2023/04/09 01:40:13;;;;;;;;;;;9.50;86.30;;;8.76;67.52;101499.94;5086916;28;20410;-77
2023/04/09 01:42:41;;;;;;;;;;;9.50;86.30;;;8.75;67.49;101499.13;5076610;28;19959;-77
2023/04/09 01:45:10;;;;;;;;;;;9.50;86.40;;;8.73;67.49;101495.78;5070364;28;19977;-81
2023/04/09 01:47:39;;;;;;;;;;;9.40;86.30;;;8.71;67.42;101495.16;5071350;28;19928;-77
2023/04/09 01:50:06;;;;;;;;;;;9.40;86.20;;;8.70;67.32;101495.31;5095609;28;19935;-77
2023/04/09 01:52:34;;;;;;;;;;;9.30;86.20;;;8.67;67.33;101499.16;5078677;28;19928;-78
2023/04/09 01:57:58;;;;;;;;;;;9.30;86.30;;;8.63;67.49;101486.38;4882278;28;19955;-78
2023/04/09 02:00:30;;;;;;;;;;;9.30;86.30;;;8.62;67.28;101495.34;4971194;28;19932;-80
2023/04/09 02:03:06;;;;;;;;;;;9.30;86.30;;;8.59;67.33;101490.38;4972448;28;19931;-77
2023/04/09 02:05:37;;;;;;;;;;;9.40;86.30;;;8.58;67.11;101496.69;4973522;28;19934;-78
2023/04/09 02:08:06;;;;;;;;;;;9.20;86.20;;;8.54;67.27;101490.91;4900153;28;19966;-77
2023/04/09 02:10:35;;;;;;;;;;;9.20;86.30;;;8.52;67.45;101488.41;4912439;28;19967;-80
2023/04/09 02:13:05;;;;;;;;;;;9.20;86.40;;;8.49;67.38;101488.78;4991221;28;19928;-79
2023/04/09 02:15:34;;;;;;;;;;;9.20;86.30;;;8.48;67.50;101488.94;4908750;28;19941;-78
2023/04/09 02:18:02;;;;;;;;;;;9.10;86.50;;;8.46;67.46;101489.09;4909304;28;19949;-77
2023/04/09 02:20:29;;;;;;;;;;;9.10;86.40;;;8.44;67.39;101490.25;4910081;28;20558;-78
2023/04/09 02:22:56;;;;;;;;;;;9.10;86.40;;;8.41;67.32;101490.63;4991986;28;19931;-78
2023/04/09 02:25:24;;;;;;;;;;;9.10;86.30;;;8.38;67.47;101481.16;4989906;28;20402;-78
2023/04/09 02:27:51;;;;;;;;;;;9.10;86.50;;;8.38;67.39;101482.97;4909734;28;20371;-78
2023/04/09 02:30:18;;;;;;;;;;;9.00;86.30;;;8.35;67.44;101478.81;4911010;28;19938;-78
2023/04/09 02:32:45;;;;;;;;;;;9.00;86.30;;;8.32;67.47;101478.34;4991619;28;19931;-78
2023/04/09 02:35:14;;;;;;;;;;;9.00;86.30;;;8.29;67.36;101476.84;4907506;29;20387;-80
2023/04/09 02:37:41;;;;;;;;;;;9.00;86.20;;;8.27;67.26;101471.69;4989964;28;19927;-81
2023/04/09 02:40:09;;;;;;;;;;;8.90;86.30;;;8.24;67.28;101466.72;4992130;28;20386;-78
2023/04/09 02:42:36;;;;;;;;;;;8.90;86.30;;;8.23;67.09;101472.22;4983851;28;19981;-77
2023/04/09 02:45:03;;;;;;;;;;;8.90;86.20;;;8.19;66.87;101468.22;4908189;29;19931;-77
2023/04/09 02:47:32;;;;;;;;;;;8.90;86.10;;;8.15;66.93;101464.25;4988098;28;20034;-78
2023/04/09 02:49:59;;;;;;;;;;;8.80;85.80;;;8.12;66.56;101464.63;4906388;28;19937;-77
2023/04/09 02:52:29;;;;;;;;;;;8.80;85.50;;;8.08;66.56;101464.13;4908580;29;19934;-78
2023/04/09 02:54:56;;;;;;;;;;;8.80;85.60;;;8.07;66.47;101462.47;4990595;28;20506;-79
2023/04/09 02:57:23;;;;;;;;;;;8.70;85.60;;;8.05;66.60;101460.97;4916419;28;19939;-77
2023/04/09 02:59:50;;;;;;;;;;;8.70;85.90;;;8.00;66.52;101456.16;4902714;29;19985;-77
2023/04/09 03:02:17;;;;;;;;;;;8.70;85.50;;;7.97;66.10;101465.31;4989543;28;19931;-76
2023/04/09 03:04:44;;;;;;;;;;;8.60;85.20;;;7.95;65.96;101455.84;4907819;28;20417;-77
2023/04/09 03:07:11;;;;;;;;;;;8.60;85.30;;;7.93;66.31;101461.31;4987064;28;20413;-77
2023/04/09 03:09:40;;;;;;;;;;;8.60;85.70;;;7.93;66.41;101457.84;4990990;28;19935;-77
2023/04/09 03:12:07;;;;;;;;;;;8.50;85.90;;;7.90;66.58;101455.53;4909829;29;19938;-78
2023/04/09 03:14:34;;;;;;;;;;;8.50;85.90;;;7.87;66.24;101442.59;4908293;29;19927;-76
2023/04/09 03:17:01;;;;;;;;;;;8.50;85.90;;;7.83;66.50;101444.75;4907112;28;19941;-80
2023/04/09 03:19:30;;;;;;;;;;;8.50;85.90;;;7.80;66.56;101452.22;4924165;28;20648;-77
2023/04/09 03:21:57;;;;;;;;;;;8.40;85.80;;;7.81;66.42;101451.22;4908459;29;19931;-77
2023/04/09 03:24:27;;;;;;;;;;;8.40;85.70;;;7.78;66.25;101448.91;4907430;29;20418;-78
2023/04/09 03:27:01;;;;;;;;;;;8.40;85.70;;;7.77;66.38;101444.59;4903969;28;19994;-79
2023/04/09 03:29:29;;;;;;;;;;;8.40;85.80;;;7.74;66.72;101433.31;4993130;28;19934;-79
2023/04/09 03:31:56;;;;;;;;;;;8.40;85.90;;;7.72;66.71;101445.94;4908413;29;19931;-80
2023/04/09 03:34:24;;;;;;;;;;;8.40;85.90;;;7.71;66.44;101449.59;4989064;28;19942;-78
2023/04/09 03:36:54;;;;;;;;;;;8.30;85.90;;;7.70;66.34;101445.25;4985044;28;19939;-78
2023/04/09 03:39:24;;;;;;;;;;;8.30;85.90;;;7.67;66.43;101436.81;4911332;28;20403;-76
2023/04/09 03:41:51;;;;;;;;;;;8.30;85.80;;;7.66;66.32;101438.66;4911175;29;19954;-77
2023/04/09 03:44:20;;;;;;;;;;;8.30;85.90;;;7.64;66.67;101440.63;4912120;29;20001;-77
2023/04/09 03:47:02;;;;;;;;;;;8.30;85.80;;;7.62;66.35;101442.63;4993401;28;19935;-79
2023/04/09 03:49:30;;;;;;;;;;;8.20;85.90;;;7.59;66.82;101429.69;4984378;28;19927;-79
2023/04/09 03:52:04;;;;;;;;;;;8.20;86.10;;;7.58;66.66;101437.81;4911129;29;20013;-80
2023/04/09 03:54:37;;;;;;;;;;;8.20;86.20;;;7.57;66.84;101431.69;4910047;29;19931;-78
2023/04/09 03:57:09;;;;;;;;;;;8.10;86.20;;;7.54;66.94;101432.03;4916069;28;19938;-79
2023/04/09 03:59:41;;;;;;;;;;;8.10;86.50;;;7.51;67.03;101437.66;4988541;28;20022;-77
2023/04/09 04:02:08;;;;;;;;;;;8.10;86.80;;;7.51;67.38;101431.50;4911343;29;19937;-80
2023/04/09 04:04:39;;;;;;;;;;;8.10;87.00;;;7.47;67.28;101439.00;4905812;28;20578;-78
2023/04/09 04:07:09;;;;;;;;;;;8.10;86.70;;;7.46;67.14;101432.00;4910899;28;20001;-80
2023/04/09 04:09:42;;;;;;;;;;;8.10;86.70;;;7.44;67.43;101434.03;4993688;28;19934;-77
2023/04/09 04:12:12;;;;;;;;;;;8.10;86.70;;;7.41;67.37;101432.50;4911089;29;19931;-80
2023/04/09 04:15:00;;;;;;;;;;;8.00;86.80;;;7.40;67.19;101443.31;4991217;28;20014;-77
2023/04/09 04:17:34;;;;;;;;;;;8.00;86.70;;;7.37;67.01;101441.81;4992884;28;19950;-77
2023/04/09 04:20:04;;;;;;;;;;;8.00;86.50;;;7.36;66.96;101441.97;4988826;28;19931;-77
2023/04/09 04:22:36;;;;;;;;;;;8.00;86.60;;;7.34;66.92;101442.16;4993824;28;19938;-78
2023/04/09 04:25:05;;;;;;;;;;;8.00;86.60;;;7.33;66.98;101435.19;4987122;28;19935;-77
2023/04/09 04:27:32;;;;;;;;;;;7.90;86.60;;;7.30;67.04;101442.63;4981637;28;19990;-77
2023/04/09 04:30:00;;;;;;;;;;;7.90;86.60;;;7.29;66.64;101441.00;4910990;29;19935;-78
2023/04/09 04:32:45;;;;;;;;;;;7.90;86.50;;;7.26;66.64;101444.78;4909174;29;20054;-78
2023/04/09 04:35:12;;;;;;;;;;;7.90;86.40;;;7.23;66.99;101443.31;4987112;28;20030;-78
2023/04/09 04:37:40;;;;;;;;;;;7.80;86.30;;;7.21;66.84;101449.75;4992729;28;20272;-77
2023/04/09 04:40:09;;;;;;;;;;;7.80;86.30;;;7.17;66.59;101438.69;4985330;28;19933;-78
2023/04/09 04:42:41;;;;;;;;;;;7.80;86.30;;;7.13;66.58;101449.78;4980045;28;19931;-78
2023/04/09 04:45:14;;;;;;;;;;;7.70;86.50;;;7.10;66.83;101447.44;4993419;28;19947;-78
2023/04/09 04:47:46;;;;;;;;;;;7.70;86.50;;;7.08;66.89;101450.28;4935350;28;19936;-78
2023/04/09 04:50:14;;;;;;;;;;;7.70;86.30;;;7.05;66.77;101447.94;4908901;28;20201;-77
2023/04/09 04:52:59;;;;;;;;;;;7.60;86.20;;;7.03;66.37;101451.72;4981056;28;19946;-77
2023/04/09 04:55:30;;;;;;;;;;;7.60;86.10;;;7.01;66.41;101449.25;4950336;28;19937;-79
2023/04/09 04:57:58;;;;;;;;;;;7.60;86.10;;;6.97;66.36;101453.22;4984806;28;19954;-78
2023/04/09 05:00:30;;;;;;;;;;;7.50;86.30;;;6.94;66.25;101459.69;4992642;28;19935;-78
2023/04/09 05:03:01;;;;;;;;;;;7.50;86.20;;;6.91;66.46;101452.03;4980542;28;19932;-77
2023/04/09 05:05:48;;;;;;;;;;;7.50;86.20;;;6.88;66.51;101447.09;4959400;28;19929;-77
2023/04/09 05:08:16;;;;;;;;;;;7.50;86.40;;;6.85;66.42;101447.41;4987045;28;19934;-78
2023/04/09 05:10:45;;;;;;;;;;;7.50;86.50;;;6.86;66.69;101445.56;4980446;28;19931;-77
2023/04/09 05:13:13;;;;;;;;;;;7.50;86.40;;;6.83;66.94;101452.06;4984177;28;20418;-78
2023/04/09 05:15:41;;;;;;;;;;;7.40;86.50;;;6.83;67.01;101456.50;4994884;28;19936;-77
2023/04/09 05:18:09;;;;;;;;;;;7.40;86.50;;;6.81;67.05;101450.53;4984393;28;20384;-78
2023/04/09 05:20:37;;;;;;;;;;;7.40;86.50;;;6.80;67.01;101452.38;4991276;28;20029;-78
2023/04/09 05:23:09;;;;;;;;;;;7.40;86.70;;;6.79;67.00;101449.88;4977151;28;19932;-78
2023/04/09 05:25:40;;;;;;;;;;;7.40;86.70;;;6.79;67.01;101455.19;4974832;28;19975;-78
2023/04/09 05:28:13;;;;;;;;;;;7.40;86.50;;;6.78;66.92;101445.56;4988754;28;20398;-78
2023/04/09 05:30:45;;;;;;;;;;;7.40;86.60;;;6.78;66.61;101451.69;4982516;28;19934;-77
2023/04/09 05:33:12;;;;;;;;;;;7.40;86.50;;;6.80;66.91;101451.53;4944106;28;19931;-76
2023/04/09 05:35:40;;;;;;;;;;;7.40;86.60;;;6.81;66.93;101447.88;4991985;28;20021;-77
2023/04/09 05:38:07;;;;;;;;;;;7.40;86.50;;;6.80;66.74;101452.38;4991906;28;19931;-79
2023/04/09 05:40:35;;;;;;;;;;;7.40;86.30;;;6.80;66.68;101454.19;4984613;28;19927;-79
2023/04/09 05:43:04;;;;;;;;;;;7.40;86.40;;;6.79;66.44;101457.84;4989772;28;19958;-77
2023/04/09 05:45:38;;;;;;;;;;;7.40;86.50;;;6.79;66.56;101449.88;4991682;28;19935;-77
2023/04/09 05:48:07;;;;;;;;;;;7.40;86.40;;;6.77;66.76;101446.53;4909337;29;19931;-76
2023/04/09 05:50:34;;;;;;;;;;;7.40;86.50;;;6.77;66.79;101462.44;4913365;28;20395;-78
2023/04/09 05:53:02;;;;;;;;;;;7.40;86.60;;;6.74;67.23;101462.78;4909293;28;19931;-77
2023/04/09 05:55:37;;;;;;;;;;;7.30;87.00;;;6.75;67.62;101459.97;4991983;28;20299;-80
2023/04/09 05:58:04;;;;;;;;;;;7.30;87.10;;;6.72;67.53;101462.94;4991746;28;19938;-79
2023/04/09 06:00:31;;;;;;;;;;;7.30;87.10;;;6.70;67.61;101465.75;4988716;28;20421;-78
2023/04/09 06:02:58;;;;;;;;;;;7.30;87.30;;;6.71;67.73;101455.97;4904781;29;19932;-77
2023/04/09 06:05:29;;;;;;;;;;;7.30;87.50;;;6.73;67.62;101456.63;4909583;29;19938;-82
2023/04/09 06:07:56;;;;;;;;;;;7.30;87.50;;;6.69;68.07;101460.63;4910679;28;19960;-80
2023/04/09 06:10:24;;;;;;;;;;;7.30;87.60;;;6.69;67.93;101466.75;4912779;28;19931;-78
2023/04/09 06:12:51;;;;;;;;;;;7.20;87.80;;;6.70;68.17;101459.63;4990166;28;19931;-77
2023/04/09 06:15:18;;;;;;;;;;;7.30;88.00;;;6.70;68.41;101459.63;4906608;29;20018;-81
2023/04/09 06:17:45;;;;;;;;;;;7.30;88.10;;;6.71;68.24;101456.81;4991114;28;20292;-78
2023/04/09 06:20:12;;;;;;;;;;;7.30;88.10;;;6.71;68.47;101454.16;4906142;28;20033;-78
2023/04/09 06:22:40;;;;;;;;;;;7.30;88.10;;;6.70;68.34;101454.31;4907757;28;19935;-77
2023/04/09 06:25:08;;;;;;;;;;;7.30;88.10;;;6.71;68.43;101454.16;4988730;28;20322;-77
2023/04/09 06:27:35;;;;;;;;;;;7.30;88.20;;;6.70;68.84;101457.81;4907820;28;20016;-78
2023/04/09 06:30:02;;;;;;;;;;;7.30;88.40;;;6.74;69.13;101457.50;4930364;28;20307;-78
2023/04/09 06:32:29;;;;;;;;;;;7.30;88.60;;;6.76;68.79;101458.97;4899491;28;19927;-77
2023/04/09 06:34:57;;;;;;;;;;;7.40;88.70;;;6.79;69.23;101471.09;4907970;28;19931;-78
2023/04/09 06:37:24;;;;;;;;;;;7.40;88.70;;;6.81;69.02;101469.94;4961294;28;20055;-78
2023/04/09 06:39:52;;;;;;;;;;;7.40;88.70;;;6.83;69.03;101475.06;4937377;28;19944;-78
2023/04/09 06:42:19;;;;;;;;;;;7.40;88.70;;;6.86;69.04;101475.56;4908655;28;19941;-79
2023/04/09 06:44:56;;;;;;;;;;;7.40;89.10;;;6.90;69.17;101476.91;4984330;28;19942;-78
2023/04/09 06:47:23;;;;;;;;;;;7.50;89.10;;;6.95;69.57;101471.94;4906777;28;19971;-78
2023/04/09 06:49:50;;;;;;;;;;;7.50;89.30;;;7.00;69.43;101474.13;4946862;28;20349;-78
2023/04/09 06:52:17;;;;;;;;;;;7.50;89.10;;;7.03;69.55;101468.50;4904115;29;19981;-78
2023/04/09 06:54:44;;;;;;;;;;;7.60;89.10;;;7.11;69.31;101470.31;4894953;28;19975;-77
2023/04/09 06:57:13;;;;;;;;;;;7.70;89.10;;;7.17;69.32;101470.50;4899462;29;20026;-79
2023/04/09 06:59:40;;;;;;;;;;;7.70;89.20;;;7.29;69.84;101478.97;4910745;29;19927;-80
2023/04/09 07:02:07;;;;;;;;;;;7.80;89.40;;;7.38;69.87;101479.81;4908590;29;19934;-78
2023/04/09 07:04:35;;;;;;;;;;;8.00;89.30;;;7.47;69.69;101477.00;4901831;28;20581;-79
2023/04/09 07:07:02;;;;;;;;;;;8.10;89.40;;;7.59;69.70;101481.94;4902625;28;20422;-78
2023/04/09 07:09:30;;;;;;;;;;;8.20;89.10;;;7.71;69.58;101475.28;4910299;29;19938;-80
2023/04/09 07:11:57;;;;;;;;;;;8.30;89.30;;;7.79;69.22;101480.59;4905803;28;19935;-76
2023/04/09 07:14:25;;;;;;;;;;;8.40;88.40;;;7.89;68.68;101485.75;4901936;28;19967;-79
2023/04/09 07:16:52;;;;;;;;;;;8.60;87.90;;;8.03;68.93;101482.41;4991482;28;19927;-76
2023/04/09 07:19:19;;;;;;;;;;;8.70;88.10;;;8.15;68.78;101489.03;4891915;29;20018;-77
2023/04/09 07:21:46;;;;;;;;;;;8.80;88.10;;;8.28;68.39;101483.16;4903705;29;19931;-78
2023/04/09 07:24:14;;;;;;;;;;;8.90;87.70;;;8.41;68.34;101483.47;4895931;28;20026;-77
2023/04/09 07:26:41;;;;;;;;;;;9.00;87.40;;;8.52;68.10;101483.09;4893797;28;19932;-78
2023/04/09 07:29:08;;;;;;;;;;;9.20;87.20;;;8.64;67.76;101488.06;4898823;28;20038;-76
2023/04/09 07:31:36;;;;;;;;;;;9.30;87.00;;;8.72;67.44;101477.34;4899824;29;20635;-76
2023/04/09 07:34:03;;;;;;;;;;;9.40;86.50;;;8.86;67.21;101483.78;4896491;28;20072;-77
2023/04/09 07:36:31;;;;;;;;;;;9.50;86.30;;;8.97;66.43;101491.34;4908275;28;19932;-78
2023/04/09 07:38:58;;;;;;;;;;;9.70;85.50;;;9.07;65.97;101481.31;4900134;28;20010;-77
2023/04/09 07:41:25;;;;;;;;;;;9.80;84.90;;;9.21;65.69;101483.19;4902781;28;19927;-77
2023/04/09 07:43:52;;;;;;;;;;;9.90;84.70;;;9.35;65.52;101478.94;4900875;29;19931;-76
2023/04/09 07:46:20;;;;;;;;;;;10.00;84.30;;;9.46;65.54;101478.53;4906502;28;20388;-82
2023/04/09 07:48:49;;;;;;;;;;;10.20;84.70;;;9.60;65.04;101484.06;4899748;28;19943;-86
2023/04/09 07:51:16;;;;;;;;;;;10.30;84.10;;;9.69;64.13;101480.34;4990517;28;19935;-82
2023/04/09 07:53:43;;;;;;;;;;;10.40;82.70;;;9.79;63.71;101476.41;4907657;29;19989;-85
2023/04/09 07:56:11;;;;;;;;;;;10.50;82.60;;;9.92;63.28;101472.31;5036984;23;19928;-77
2023/04/09 07:59:42;;;;;;;25.73;17.15;;;10.60;82.20;;;10.10;64.34;101469.25;5084797;27;20367;-78
2023/04/09 08:02:09;;;;;;;27.30;18.30;;;10.80;83.20;;;10.19;63.44;101477.00;5060849;28;20560;-78
2023/04/09 08:04:36;;;;;;;24.50;17.05;;;10.90;81.80;;;10.30;63.23;101473.91;5060670;28;20064;-79
2023/04/09 08:07:04;;;;;;;26.75;18.23;;;11.00;81.40;;;10.41;62.89;101469.13;5060868;28;20083;-78
2023/04/09 08:09:31;;;;;;;29.13;18.05;;;11.20;81.20;;;10.52;62.20;101471.31;5055377;28;20072;-82
2023/04/09 08:11:58;;;;;;;23.73;16.58;;;11.30;80.70;;;10.64;61.66;101463.63;5055484;28;20566;-78
2023/04/09 08:14:26;;;;;;;25.05;16.80;;;11.40;79.80;;;10.75;61.46;101471.19;5064580;28;20147;-78
2023/04/09 08:16:55;;;;;;;23.42;16.02;;;11.50;79.50;;;10.86;60.74;101470.69;5062301;28;20492;-77
2023/04/09 08:19:22;;;;;;;24.83;16.33;;;11.60;78.70;;;10.94;61.30;101472.44;5057969;28;20066;-78
2023/04/09 08:21:49;;;;;;;24.60;15.80;;;11.70;79.60;;;11.04;61.17;101464.94;5056925;28;20129;-78
2023/04/09 08:24:17;;;;;;;25.50;15.90;;;11.80;79.30;;;11.11;60.37;101460.47;5064113;28;20189;-77
2023/04/09 08:26:44;;;;;;;23.55;15.82;;;11.90;78.40;;;11.17;59.51;101462.38;5054870;28;20056;-78
2023/04/09 08:29:13;;;;;;;23.85;15.95;;;12.00;77.40;;;11.15;59.62;101467.09;5063812;28;20052;-79
2023/04/09 08:31:40;;;;;;;23.25;14.68;;;12.10;77.60;;;11.22;59.06;101459.97;5052412;28;20041;-79
2023/04/09 08:34:09;;;;;;;22.42;14.27;;;12.10;77.00;;;11.27;59.73;101470.06;5064994;28;20048;-78
2023/04/09 08:36:36;;;;;;;20.27;14.13;;;12.10;77.60;;;11.37;59.79;101465.25;5053469;28;20051;-79
2023/04/09 08:39:04;;;;;;;20.65;13.50;;;12.20;77.40;;;11.48;58.76;101459.41;5064932;28;20127;-78
2023/04/09 08:41:31;;;;;;;23.67;15.13;;;12.30;76.60;;;11.57;60.41;101454.75;5058525;28;20049;-78
2023/04/09 08:43:59;;;;;;;22.20;13.60;;;12.40;78.00;;;11.66;58.14;101463.41;5060204;28;20127;-77
2023/04/09 08:46:27;;;;;;;18.13;12.00;;;12.50;75.70;;;11.75;58.07;101459.59;5058943;28;20134;-77
2023/04/09 08:48:54;;;;;;;16.17;10.93;;;12.60;75.10;;;11.92;56.94;101463.66;5064950;28;20043;-78
2023/04/09 08:51:24;;;;;;;15.45;9.82;;;12.80;74.10;;;11.91;54.18;101456.66;5056187;28;20040;-79
2023/04/09 08:53:57;;;;;;;16.90;9.98;;;12.80;71.30;;;12.09;56.68;101464.16;5061640;28;20044;-78
2023/04/09 08:56:25;;;;;;;14.30;9.55;;;12.90;73.50;;;12.10;53.84;101463.13;5064342;28;20032;-78
2023/04/09 08:58:53;;;;;;;13.05;8.52;;;13.00;70.50;;;12.09;51.90;101465.00;5063199;28;20059;-80
2023/04/09 09:01:21;;;;;;;13.75;8.73;;;13.00;67.90;;;12.11;53.09;101462.97;5059782;28;20124;-79
2023/04/09 09:03:59;;;;;;;16.73;9.98;;;13.00;69.50;;;12.06;51.38;101452.03;5064722;28;20052;-78
2023/04/09 09:06:31;;;;;;;14.38;8.52;;;13.00;67.60;;;12.02;51.10;101453.44;5063156;28;20507;-79
2023/04/09 09:09:07;;;;;;;13.40;8.63;;;13.00;67.00;;;12.09;52.29;101456.16;5059153;28;20041;-78
2023/04/09 09:11:35;;;;;;;14.38;8.63;;;13.00;68.30;;;12.25;51.96;101452.31;5044568;28;20140;-78
2023/04/09 09:14:06;;;;;;;12.77;7.93;;;13.10;67.70;;;12.30;50.21;101456.06;5051531;28;20493;-78
2023/04/09 09:16:38;;;;;;;10.82;7.15;;;13.30;65.50;;;12.29;50.30;101454.41;5049977;28;20447;-77
2023/04/09 09:19:06;;;;;;;13.77;8.23;;;13.20;66.10;;;12.34;51.16;101462.66;5045095;28;20037;-77
2023/04/09 09:21:35;;;;;;;11.38;7.55;;;13.30;67.20;;;12.35;49.24;101453.63;5049755;28;20061;-78
2023/04/09 09:24:16;;;;;;;12.65;7.40;;;13.30;64.20;;;12.36;49.77;101454.44;5051133;28;20059;-76
2023/04/09 09:26:43;;;;;;;12.55;8.05;;;13.30;65.20;;;12.31;49.30;101455.03;5045394;28;20136;-80
2023/04/09 09:29:10;;;;;;;11.73;7.65;;;13.30;64.40;;;12.25;49.78;101445.16;5046664;28;20422;-77
2023/04/09 09:31:48;;;;;;;11.20;7.18;;;13.20;65.20;;;12.26;48.92;101452.13;5046893;28;20041;-79
2023/04/09 09:34:16;;;;;;;13.27;8.23;;;13.20;63.70;;;12.29;49.75;101437.53;5051133;28;20045;-76
2023/04/09 09:36:46;;;;;;;13.02;8.18;;;13.20;64.60;;;12.36;49.18;101438.41;5049694;28;20469;-78
2023/04/09 09:39:16;;;;;;;10.93;7.20;;;13.30;64.10;;;12.40;49.88;101428.97;5050330;28;20045;-77
2023/04/09 09:41:44;;;;;;;10.02;6.47;;;13.30;65.00;;;12.50;49.08;101429.41;5034353;28;20044;-78
2023/04/09 09:44:31;;;;;;;11.40;6.68;;;13.40;64.00;;;12.54;48.94;101424.47;5048311;28;20144;-78
2023/04/09 09:46:59;;;;;;;10.70;6.10;;;13.50;64.20;;;12.52;47.24;101423.84;5047513;28;20398;-78
2023/04/09 09:49:26;;;;;;;9.80;6.07;;;13.40;61.50;;;12.53;46.52;101425.50;5042912;28;20044;-78
2023/04/09 09:51:59;;;;;;;9.18;6.28;;;13.40;60.70;;;12.49;47.47;101422.41;5048773;28;20123;-78
2023/04/09 09:54:29;;;;;;;11.48;6.57;;;13.40;61.80;;;12.56;47.40;101427.78;5039225;28;20112;-79
2023/04/09 09:57:02;;;;;;;10.25;6.50;;;13.50;61.80;;;12.54;47.32;101421.78;5044927;28;20041;-78
2023/04/09 09:59:34;;;;;;;11.55;7.15;;;13.50;61.60;;;12.50;46.97;101409.84;5038615;28;20095;-78
2023/04/09 10:02:06;;;;;;;9.73;6.63;;;13.40;61.10;;;12.45;47.09;101423.84;5042888;28;20056;-79
2023/04/09 10:04:36;;;;;;;11.13;7.40;;;13.40;61.20;;;12.51;46.64;101415.00;5033820;28;20417;-77
2023/04/09 10:07:07;;;;;;;9.40;6.50;;;13.50;60.70;;;12.60;47.79;101421.81;5045309;28;20127;-77
2023/04/09 10:09:35;;;;;;;10.67;7.20;;;13.50;62.10;;;12.61;47.12;101420.78;5046679;28;20091;-80
2023/04/09 10:12:06;;;;;;;10.85;7.28;;;13.50;61.00;;;12.61;46.74;101417.28;5045836;28;20056;-79
2023/04/09 10:14:35;;;;;;;11.88;6.97;;;13.50;60.70;;;12.55;46.60;101412.75;5050148;28;20116;-78
2023/04/09 10:17:03;;;;;;;10.00;6.32;;;13.50;60.50;;;12.52;46.09;101405.94;5038404;28;20042;-77
2023/04/09 10:19:30;;;;;;;12.93;6.30;;;13.50;59.50;;;12.58;47.62;101409.66;5041472;28;20041;-79
2023/04/09 10:22:05;;;;;;;11.00;6.30;;;13.50;62.00;;;12.61;46.00;101401.22;5049144;28;20098;-77
2023/04/09 10:24:35;;;;;;;10.40;6.75;;;13.50;59.50;;;12.69;48.26;101405.56;5042381;28;20554;-77
2023/04/09 10:27:10;;;;;;;11.20;6.70;;;13.60;62.60;;;12.77;46.07;101397.34;5047328;28;20431;-79
2023/04/09 10:29:44;;;;;;;11.45;7.82;;;13.70;59.70;;;12.85;46.66;101397.19;5050996;28;20052;-82
2023/04/09 10:32:13;;;;;;;9.82;6.63;;;13.70;60.60;;;12.85;46.89;101391.81;5046153;28;20128;-81
2023/04/09 10:34:43;;;;;;;10.68;7.00;;;13.80;60.40;;;12.79;45.35;101388.13;5048906;28;20511;-80
2023/04/09 10:37:16;;;;;;;11.02;6.68;;;13.80;58.90;;;12.77;45.27;101394.69;5038405;28;20045;-79
2023/04/09 10:39:48;;;;;;;11.85;7.68;;;13.70;58.60;;;12.73;45.58;101396.09;5032949;28;20504;-80
2023/04/09 10:42:20;;;;;;;11.00;7.03;;;13.70;58.90;;;12.73;45.86;101402.28;5034261;28;20124;-80
2023/04/09 10:45:06;;;;;;;10.93;7.25;;;13.70;59.30;;;12.75;46.78;101394.91;5046980;28;20283;-80
2023/04/09 10:47:35;;;;;;;11.38;7.47;;;13.70;60.40;;;12.86;47.23;101396.97;5032772;28;20057;-81
2023/04/09 10:50:17;;;;;;;11.10;6.90;;;13.80;61.10;;;12.89;46.17;101396.56;5037602;28;20051;-77
2023/04/09 10:52:44;;;;;;;11.75;7.53;;;13.80;59.60;;;12.89;45.31;101396.56;5032759;28;20095;-77
2023/04/09 10:55:32;;;;;;;9.73;6.70;;;13.80;58.60;;;12.92;47.77;101384.63;5039479;28;20047;-78
2023/04/09 10:58:00;;;;;;;10.55;7.38;;;13.80;61.70;;;13.00;45.71;101383.59;5032077;28;20045;-78
2023/04/09 11:00:27;;;;;;;9.50;6.43;;;13.90;59.10;;;13.07;46.64;101389.78;5034399;28;20033;-77
2023/04/09 11:03:21;;;;;;;10.68;7.10;;;14.00;60.30;;;13.08;45.88;101383.41;5030447;28;20065;-77
2023/04/09 11:06:00;;;;;;;10.55;7.28;;;14.00;59.30;;;13.06;46.29;101388.13;5037160;28;20052;-77
2023/04/09 11:08:32;;;;;;;10.23;6.70;;;14.00;59.70;;;13.04;45.10;101379.50;5032984;28;20118;-78
2023/04/09 11:11:02;;;;;;;9.60;6.65;;;13.90;58.30;;;13.07;44.87;101365.66;5034004;28;20065;-75
2023/04/09 11:13:31;;;;;;;9.52;6.63;;;14.00;57.90;;;13.15;45.07;101368.97;5030134;28;20051;-76